createdAt,value
2019-03-21T00:00:32.061Z,99.99
2019-03-21T00:01:32.041Z,99.99
2019-03-21T00:02:32.072Z,99.99
2019-03-21T00:03:32.041Z,99.99
2019-03-21T00:04:32.031Z,99.99
2019-03-21T00:05:32.029Z,99.99
2019-03-21T00:06:32.023Z,99.99
2019-03-21T00:07:32.049Z,99.99
2019-03-21T00:08:32.009Z,99.99
2019-03-21T00:09:32.005Z,99.99
2019-03-21T00:10:31.986Z,99.99
2019-03-21T00:11:31.981Z,99.99
2019-03-21T00:12:32.021Z,99.99
2019-03-21T00:13:31.981Z,99.99
2019-03-21T00:14:31.973Z,99.99
2019-03-21T00:15:31.969Z,99.99
2019-03-21T00:16:31.960Z,99.99
2019-03-21T00:17:31.983Z,99.99
2019-03-21T00:18:31.974Z,99.99
2019-03-21T00:19:31.945Z,99.99
2019-03-21T00:20:31.937Z,99.99
2019-03-21T00:21:31.935Z,99.99
2019-03-21T00:22:31.930Z,99.99
2019-03-21T00:23:31.954Z,99.99
2019-03-21T00:24:31.912Z,99.99
2019-03-21T00:25:31.919Z,99.99
2019-03-21T00:26:31.905Z,99.99
2019-03-21T00:27:31.941Z,99.99
2019-03-21T00:28:31.922Z,99.99
2019-03-21T00:29:31.887Z,99.99
2019-03-21T00:30:31.877Z,99.99
2019-03-21T00:31:31.886Z,99.99
2019-03-21T00:32:31.869Z,99.99
2019-03-21T00:33:31.889Z,99.99
2019-03-21T00:34:31.893Z,99.99
2019-03-21T00:35:31.897Z,99.99
2019-03-21T00:36:31.856Z,99.99
2019-03-21T00:37:31.858Z,99.99
2019-03-21T00:38:31.858Z,99.99
2019-03-21T00:39:33.207Z,99.99
2019-03-21T00:40:32.555Z,99.99
2019-03-21T00:41:31.829Z,99.99
2019-03-21T00:42:31.806Z,99.99
2019-03-21T00:43:31.825Z,99.99
2019-03-21T00:44:31.792Z,99.99
2019-03-21T00:45:31.789Z,99.99
2019-03-21T00:46:31.781Z,99.99
2019-03-21T00:47:31.784Z,99.99
2019-03-21T00:48:31.806Z,99.99
2019-03-21T00:49:31.760Z,99.99
2019-03-21T00:50:31.755Z,99.99
2019-03-21T00:51:31.749Z,99.99
2019-03-21T00:52:31.770Z,99.99
2019-03-21T00:53:31.736Z,99.99
2019-03-21T00:54:31.765Z,99.99
2019-03-21T00:55:31.725Z,99.99
2019-03-21T00:56:31.717Z,99.99
2019-03-21T00:57:32.621Z,99.99
2019-03-21T00:58:32.623Z,99.99
2019-03-21T00:59:31.725Z,99.99
2019-03-21T01:00:31.694Z,99.99
2019-03-21T01:01:31.686Z,99.99
2019-03-21T01:02:31.693Z,99.99
2019-03-21T01:03:31.678Z,99.99
2019-03-21T01:04:31.701Z,99.99
2019-03-21T01:05:31.697Z,99.99
2019-03-21T01:06:31.654Z,99.99
2019-03-21T01:07:31.653Z,99.99
2019-03-21T01:08:31.645Z,99.99
2019-03-21T01:09:32.556Z,99.99
2019-03-21T01:10:35.483Z,99.99
2019-03-21T01:11:31.625Z,99.99
2019-03-21T01:12:31.617Z,99.99
2019-03-21T01:13:31.619Z,99.99
2019-03-21T01:14:32.613Z,99.99
2019-03-21T01:15:31.601Z,99.99
2019-03-21T01:16:31.602Z,99.99
2019-03-21T01:17:31.593Z,99.99
2019-03-21T01:18:31.581Z,99.99
2019-03-21T01:19:33.562Z,99.99
2019-03-21T01:20:32.557Z,99.99
2019-03-21T01:21:31.566Z,99.99
2019-03-21T01:22:31.575Z,99.99
2019-03-21T01:23:31.554Z,99.99
2019-03-21T01:24:31.586Z,99.99
2019-03-21T01:25:31.539Z,99.99
2019-03-21T01:26:31.539Z,99.99
2019-03-21T01:27:31.524Z,99.99
2019-03-21T01:28:31.548Z,99.99
2019-03-21T01:29:31.513Z,99.99
2019-03-21T01:30:31.552Z,99.99
2019-03-21T01:31:31.504Z,99.99
2019-03-21T01:32:31.501Z,99.99
2019-03-21T01:33:31.488Z,99.99
2019-03-21T01:34:31.484Z,99.99
2019-03-21T01:35:31.504Z,99.99
2019-03-21T01:36:31.471Z,99.99
2019-03-21T01:37:31.475Z,99.99
2019-03-21T01:38:31.462Z,99.99
2019-03-21T01:39:31.476Z,99.99
2019-03-21T01:40:31.473Z,99.99
2019-03-21T01:41:31.467Z,99.99
2019-03-21T01:42:31.433Z,99.99
2019-03-21T01:43:31.416Z,99.99
2019-03-21T01:44:40.584Z,99.99
2019-03-21T01:45:31.660Z,99.99
2019-03-21T01:46:31.409Z,99.99
2019-03-21T01:47:31.401Z,99.99
2019-03-21T01:48:32.058Z,99.99
2019-03-21T01:49:31.376Z,99.99
2019-03-21T01:50:31.408Z,99.99
2019-03-21T01:51:31.369Z,99.99
2019-03-21T01:52:31.368Z,99.99
2019-03-21T01:53:31.363Z,99.99
2019-03-21T01:54:31.355Z,99.99
2019-03-21T01:55:31.376Z,99.99
2019-03-21T01:56:31.342Z,99.99
2019-03-21T01:57:31.337Z,99.99
2019-03-21T01:58:31.320Z,99.99
2019-03-21T01:59:31.320Z,99.99
2019-03-21T02:00:31.345Z,99.99
2019-03-21T02:01:31.306Z,99.99
2019-03-21T02:02:31.981Z,99.99
2019-03-21T02:03:31.291Z,99.99
2019-03-21T02:04:31.294Z,99.99
2019-03-21T02:05:31.998Z,99.99
2019-03-21T02:06:31.278Z,99.99
2019-03-21T02:07:31.268Z,99.99
2019-03-21T02:08:31.272Z,99.99
2019-03-21T02:09:31.256Z,99.99
2019-03-21T02:10:31.325Z,99.99
2019-03-21T02:11:31.324Z,99.99
2019-03-21T02:12:31.244Z,99.99
2019-03-21T02:13:31.979Z,99.99
2019-03-21T02:14:31.229Z,99.99
2019-03-21T02:15:31.240Z,99.99
2019-03-21T02:16:31.213Z,99.99
2019-03-21T02:17:31.236Z,99.99
2019-03-21T02:18:31.205Z,99.99
2019-03-21T02:19:31.192Z,99.99
2019-03-21T02:20:31.185Z,99.99
2019-03-21T02:21:32.151Z,99.99
2019-03-21T02:22:31.172Z,99.99
2019-03-21T02:23:32.057Z,99.99
2019-03-21T02:24:32.051Z,99.99
2019-03-21T02:25:31.151Z,99.99
2019-03-21T02:26:31.183Z,99.99
2019-03-21T02:27:31.141Z,99.99
2019-03-21T02:28:31.131Z,99.99
2019-03-21T02:29:31.137Z,99.99
2019-03-21T02:30:31.119Z,99.99
2019-03-21T02:31:31.139Z,99.99
2019-03-21T02:32:31.131Z,99.99
2019-03-21T02:33:32.577Z,99.99
2019-03-21T02:34:31.093Z,99.99
2019-03-21T02:35:31.620Z,99.99
2019-03-21T02:36:31.115Z,99.99
2019-03-21T02:37:31.069Z,99.99
2019-03-21T02:38:31.099Z,99.99
2019-03-21T02:39:31.063Z,99.99
2019-03-21T02:40:31.056Z,99.99
2019-03-21T02:41:31.241Z,99.99
2019-03-21T02:42:31.043Z,99.99
2019-03-21T02:43:31.046Z,99.99
2019-03-21T02:44:31.029Z,99.99
2019-03-21T02:45:31.019Z,99.99
2019-03-21T02:46:31.050Z,99.99
2019-03-21T02:47:31.045Z,99.99
2019-03-21T02:48:31.000Z,99.99
2019-03-21T02:49:30.992Z,99.99
2019-03-21T02:50:30.982Z,99.99
2019-03-21T02:51:31.010Z,99.99
2019-03-21T02:52:31.003Z,99.99
2019-03-21T02:53:30.969Z,99.99
2019-03-21T02:54:31.979Z,99.99
2019-03-21T02:55:30.950Z,99.99
2019-03-21T02:56:30.976Z,99.99
2019-03-21T02:57:30.946Z,99.99
2019-03-21T02:58:30.932Z,99.99
2019-03-21T02:59:30.927Z,99.99
2019-03-21T03:00:30.920Z,99.99
2019-03-21T03:01:30.940Z,99.99
2019-03-21T03:02:30.908Z,99.99
2019-03-21T03:03:30.898Z,99.99
2019-03-21T03:04:30.889Z,99.99
2019-03-21T03:05:30.961Z,99.99
2019-03-21T03:06:30.917Z,99.99
2019-03-21T03:07:30.891Z,99.99
2019-03-21T03:08:30.900Z,99.99
2019-03-21T03:09:30.863Z,99.99
2019-03-21T03:10:30.852Z,99.99
2019-03-21T03:11:30.844Z,99.99
2019-03-21T03:12:30.865Z,99.99
2019-03-21T03:13:30.825Z,99.99
2019-03-21T03:14:30.852Z,99.99
2019-03-21T03:15:30.824Z,99.99
2019-03-21T03:16:30.808Z,99.99
2019-03-21T03:17:30.839Z,99.99
2019-03-21T03:18:30.799Z,99.99
2019-03-21T03:19:30.792Z,99.99
2019-03-21T03:20:30.816Z,99.99
2019-03-21T03:21:30.787Z,99.99
2019-03-21T03:22:30.798Z,99.99
2019-03-21T03:23:30.759Z,99.99
2019-03-21T03:24:30.758Z,99.99
2019-03-21T03:25:30.743Z,99.99
2019-03-21T03:26:30.741Z,99.99
2019-03-21T03:27:30.800Z,99.99
2019-03-21T03:28:30.735Z,99.99
2019-03-21T03:29:30.735Z,99.99
2019-03-21T03:30:30.731Z,99.99
2019-03-21T03:31:30.707Z,99.99
2019-03-21T03:32:30.739Z,99.99
2019-03-21T03:33:30.689Z,99.99
2019-03-21T03:34:30.688Z,99.99
2019-03-21T03:35:30.673Z,99.99
2019-03-21T03:36:30.675Z,99.99
2019-03-21T03:37:30.701Z,99.99
2019-03-21T03:38:30.779Z,99.99
2019-03-21T03:39:30.650Z,99.99
2019-03-21T03:40:30.649Z,99.99
2019-03-21T03:41:30.638Z,99.99
2019-03-21T03:42:30.675Z,99.99
2019-03-21T03:43:30.711Z,99.99
2019-03-21T03:44:30.649Z,99.99
2019-03-21T03:45:37.612Z,99.99
2019-03-21T03:46:30.639Z,99.99
2019-03-21T03:47:30.596Z,99.99
2019-03-21T03:48:30.627Z,99.99
2019-03-21T03:49:30.586Z,99.99
2019-03-21T03:50:30.575Z,99.99
2019-03-21T03:51:30.575Z,99.99
2019-03-21T03:52:30.566Z,99.99
2019-03-21T03:53:30.630Z,99.99
2019-03-21T03:54:30.550Z,99.99
2019-03-21T03:55:30.543Z,99.99
2019-03-21T03:56:30.533Z,99.99
2019-03-21T03:57:30.534Z,99.99
2019-03-21T03:58:30.562Z,99.99
2019-03-21T03:59:30.541Z,99.99
2019-03-21T04:00:30.526Z,99.99
2019-03-21T04:01:30.502Z,99.99
2019-03-21T04:02:30.493Z,99.99
2019-03-21T04:03:30.532Z,99.99
2019-03-21T04:04:30.474Z,99.99
2019-03-21T04:05:30.465Z,99.99
2019-03-21T04:06:30.464Z,99.99
2019-03-21T04:07:30.460Z,99.99
2019-03-21T04:08:30.485Z,99.99
2019-03-21T04:09:30.482Z,99.99
2019-03-21T04:10:30.438Z,99.99
2019-03-21T04:11:30.441Z,99.99
2019-03-21T04:12:30.426Z,99.99
2019-03-21T04:13:30.462Z,99.99
2019-03-21T04:14:30.451Z,99.99
2019-03-21T04:15:30.416Z,99.99
2019-03-21T04:16:30.394Z,99.99
2019-03-21T04:17:30.389Z,99.99
2019-03-21T04:18:30.391Z,99.99
2019-03-21T04:19:30.425Z,99.99
2019-03-21T04:20:30.370Z,99.99
2019-03-21T04:21:30.363Z,99.99
2019-03-21T04:22:30.359Z,99.99
2019-03-21T04:23:30.353Z,99.99
2019-03-21T04:24:30.377Z,99.99
2019-03-21T04:25:30.340Z,99.99
2019-03-21T04:26:30.331Z,99.99
2019-03-21T04:27:30.312Z,99.99
2019-03-21T04:28:30.327Z,99.99
2019-03-21T04:29:30.353Z,99.99
2019-03-21T04:30:30.303Z,99.99
2019-03-21T04:31:30.286Z,99.99
2019-03-21T04:32:30.289Z,99.99
2019-03-21T04:33:30.276Z,99.99
2019-03-21T04:34:30.305Z,99.99
2019-03-21T04:35:30.297Z,99.99
2019-03-21T04:36:30.264Z,99.99
2019-03-21T04:37:30.277Z,99.99
2019-03-21T04:38:30.242Z,99.99
2019-03-21T04:39:30.278Z,99.99
2019-03-21T04:40:30.232Z,99.99
2019-03-21T04:41:30.233Z,99.99
2019-03-21T04:42:30.209Z,99.99
2019-03-21T04:43:30.213Z,99.99
2019-03-21T04:44:30.238Z,99.99
2019-03-21T04:45:30.200Z,99.99
2019-03-21T04:46:30.186Z,99.99
2019-03-21T04:47:30.180Z,99.99
2019-03-21T04:48:30.169Z,99.99
2019-03-21T04:49:30.205Z,99.99
2019-03-21T04:50:30.155Z,99.99
2019-03-21T04:51:30.156Z,99.99
2019-03-21T04:52:30.146Z,99.99
2019-03-21T04:53:30.133Z,99.99
2019-03-21T04:54:30.169Z,99.99
2019-03-21T04:55:30.129Z,99.99
2019-03-21T04:56:30.113Z,99.99
2019-03-21T04:57:30.111Z,99.99
2019-03-21T04:58:30.105Z,99.99
2019-03-21T04:59:30.128Z,99.99
2019-03-21T05:00:30.129Z,99.99
2019-03-21T05:01:30.079Z,99.99
2019-03-21T05:02:30.080Z,99.99
2019-03-21T05:03:30.067Z,99.99
2019-03-21T05:04:30.069Z,99.99
2019-03-21T05:05:30.097Z,99.99
2019-03-21T05:06:32.762Z,99.99
2019-03-21T05:07:30.040Z,99.99
2019-03-21T05:08:30.037Z,99.99
2019-03-21T05:09:30.023Z,99.99
2019-03-21T05:10:30.048Z,99.99
2019-03-21T05:11:30.016Z,99.99
2019-03-21T05:12:30.002Z,99.99
2019-03-21T05:13:30.014Z,99.99
2019-03-21T05:14:29.997Z,99.99
2019-03-21T05:15:30.032Z,99.99
2019-03-21T05:16:29.976Z,99.99
2019-03-21T05:17:29.975Z,99.99
2019-03-21T05:18:29.969Z,99.99
2019-03-21T05:19:29.953Z,99.99
2019-03-21T05:20:29.987Z,99.99
2019-03-21T05:21:29.987Z,99.99
2019-03-21T05:22:29.941Z,99.99
2019-03-21T05:23:29.926Z,99.99
2019-03-21T05:24:29.928Z,99.99
2019-03-21T05:25:29.941Z,99.99
2019-03-21T05:26:29.906Z,99.99
2019-03-21T05:27:29.943Z,99.99
2019-03-21T05:28:29.895Z,99.99
2019-03-21T05:29:29.887Z,99.99
2019-03-21T05:30:29.916Z,99.99
2019-03-21T05:31:29.875Z,99.99
2019-03-21T05:32:29.865Z,99.99
2019-03-21T05:33:29.867Z,99.99
2019-03-21T05:34:29.846Z,99.99
2019-03-21T05:35:29.890Z,99.99
2019-03-21T05:36:29.843Z,99.99
2019-03-21T05:37:29.838Z,99.99
2019-03-21T05:38:29.822Z,99.99
2019-03-21T05:39:29.819Z,99.99
2019-03-21T05:40:29.847Z,99.99
2019-03-21T05:41:29.843Z,99.99
2019-03-21T05:42:29.799Z,99.99
2019-03-21T05:43:29.798Z,99.99
2019-03-21T05:44:30.902Z,99.99
2019-03-21T05:45:29.807Z,99.99
2019-03-21T05:46:29.772Z,99.99
2019-03-21T05:47:29.800Z,99.99
2019-03-21T05:48:29.762Z,99.99
2019-03-21T05:49:29.750Z,99.99
2019-03-21T05:50:29.778Z,99.99
2019-03-21T05:51:29.739Z,99.99
2019-03-21T05:52:29.734Z,99.99
2019-03-21T05:53:29.763Z,99.99
2019-03-21T05:54:29.719Z,99.99
2019-03-21T05:55:29.745Z,99.99
2019-03-21T05:56:29.709Z,99.99
2019-03-21T05:57:29.718Z,99.99
2019-03-21T05:58:29.697Z,99.99
2019-03-21T05:59:29.691Z,99.99
2019-03-21T06:00:29.724Z,99.99
2019-03-21T06:01:29.683Z,99.99
2019-03-21T06:02:29.672Z,99.99
2019-03-21T06:03:29.680Z,99.99
2019-03-21T06:04:29.662Z,99.99
2019-03-21T06:05:29.657Z,99.99
2019-03-21T06:06:29.697Z,99.99
2019-03-21T06:07:29.640Z,99.99
2019-03-21T06:08:29.632Z,99.99
2019-03-21T06:09:29.698Z,99.99
2019-03-21T06:10:29.618Z,99.99
2019-03-21T06:11:29.657Z,99.99
2019-03-21T06:12:29.608Z,99.99
2019-03-21T06:13:29.606Z,99.99
2019-03-21T06:14:29.610Z,99.99
2019-03-21T06:15:29.600Z,99.99
2019-03-21T06:16:37.588Z,99.99
2019-03-21T06:17:29.583Z,99.99
2019-03-21T06:18:29.578Z,99.99
2019-03-21T06:19:29.568Z,99.99
2019-03-21T06:20:29.570Z,99.99
2019-03-21T06:21:29.596Z,99.99
2019-03-21T06:22:29.556Z,99.99
2019-03-21T06:23:29.557Z,99.99
2019-03-21T06:24:29.558Z,99.99
2019-03-21T06:25:29.554Z,99.99
2019-03-21T06:26:29.573Z,99.99
2019-03-21T06:27:29.534Z,99.99
2019-03-21T06:28:29.530Z,99.99
2019-03-21T06:29:29.526Z,99.99
2019-03-21T06:30:29.509Z,99.99
2019-03-21T06:31:29.552Z,99.99
2019-03-21T06:32:29.502Z,99.99
2019-03-21T06:33:29.501Z,99.99
2019-03-21T06:34:29.504Z,99.99
2019-03-21T06:35:29.495Z,99.99
2019-03-21T06:36:29.523Z,99.99
2019-03-21T06:37:29.526Z,99.99
2019-03-21T06:38:29.482Z,99.99
2019-03-21T06:39:29.485Z,99.99
2019-03-21T06:40:29.477Z,99.99
2019-03-21T06:41:29.512Z,99.99
2019-03-21T06:42:29.470Z,99.99
2019-03-21T06:43:29.460Z,99.99
2019-03-21T06:44:29.462Z,99.99
2019-03-21T06:45:29.456Z,99.99
2019-03-21T06:46:29.507Z,99.99
2019-03-21T06:47:29.461Z,99.99
2019-03-21T06:48:29.449Z,99.99
2019-03-21T06:49:29.452Z,99.99
2019-03-21T06:50:29.447Z,99.99
2019-03-21T06:51:29.475Z,99.99
2019-03-21T06:52:29.481Z,99.99
2019-03-21T06:53:29.447Z,99.99
2019-03-21T06:54:29.443Z,99.97
2019-03-21T06:55:29.436Z,98.97
2019-03-21T06:56:29.491Z,98.03
2019-03-21T06:57:29.445Z,97.17
2019-03-21T06:58:29.436Z,98.50
2019-03-21T06:59:29.434Z,98.83
2019-03-21T07:00:29.421Z,98.36
2019-03-21T07:01:29.474Z,99.99
2019-03-21T07:02:29.427Z,99.99
2019-03-21T07:03:29.421Z,99.99
2019-03-21T07:04:29.417Z,97.41
2019-03-21T07:05:29.435Z,97.60
2019-03-21T07:06:29.430Z,98.89
2019-03-21T07:07:29.443Z,99.75
2019-03-21T07:08:29.415Z,94.27
2019-03-21T07:09:29.459Z,93.79
2019-03-21T07:10:29.455Z,92.32
2019-03-21T07:11:29.418Z,90.88
2019-03-21T07:12:29.451Z,90.64
2019-03-21T07:13:29.419Z,89.21
2019-03-21T07:14:29.425Z,91.60
2019-03-21T07:15:29.415Z,89.54
2019-03-21T07:16:29.419Z,88.69
2019-03-21T07:17:29.460Z,89.26
2019-03-21T07:18:29.419Z,88.40
2019-03-21T07:19:29.427Z,89.74
2019-03-21T07:20:29.426Z,90.12
2019-03-21T07:21:29.426Z,90.73
2019-03-21T07:22:29.466Z,89.12
2019-03-21T07:23:29.433Z,86.92
2019-03-21T07:24:29.427Z,85.97
2019-03-21T07:25:29.427Z,84.48
2019-03-21T07:26:29.429Z,84.20
2019-03-21T07:27:29.459Z,83.53
2019-03-21T07:28:29.486Z,84.48
2019-03-21T07:29:29.444Z,83.43
2019-03-21T07:30:29.438Z,83.34
2019-03-21T07:31:29.439Z,82.09
2019-03-21T07:32:33.641Z,82.38
2019-03-21T07:33:29.447Z,82.48
2019-03-21T07:34:29.451Z,81.62
2019-03-21T07:35:29.458Z,81.33
2019-03-21T07:36:29.451Z,80.99
2019-03-21T07:37:29.498Z,80.13
2019-03-21T07:38:29.457Z,80.41
2019-03-21T07:39:29.466Z,79.17
2019-03-21T07:40:29.465Z,78.09
2019-03-21T07:41:29.479Z,78.47
2019-03-21T07:42:29.506Z,78.75
2019-03-21T07:43:29.477Z,79.14
2019-03-21T07:44:29.482Z,79.28
2019-03-21T07:45:29.484Z,79.38
2019-03-21T07:46:31.949Z,80.57
2019-03-21T07:47:29.492Z,79.90
2019-03-21T07:48:29.533Z,80.66
2019-03-21T07:49:29.499Z,80.76
2019-03-21T07:50:29.495Z,80.32
2019-03-21T07:51:29.511Z,79.50
2019-03-21T07:52:29.514Z,78.93
2019-03-21T07:53:29.555Z,79.41
2019-03-21T07:54:29.553Z,78.74
2019-03-21T07:55:29.522Z,78.93
2019-03-21T07:56:29.526Z,79.06
2019-03-21T07:57:29.527Z,77.63
2019-03-21T07:58:29.574Z,75.91
2019-03-21T07:59:29.547Z,76.20
2019-03-21T08:00:29.541Z,75.47
2019-03-21T08:01:29.549Z,74.32
2019-03-21T08:02:29.556Z,74.28
2019-03-21T08:03:29.575Z,74.80
2019-03-21T08:04:29.605Z,74.95
2019-03-21T08:05:39.674Z,75.27
2019-03-21T08:06:29.574Z,74.90
2019-03-21T08:07:29.583Z,74.65
2019-03-21T08:08:29.617Z,73.50
2019-03-21T08:09:29.630Z,72.12
2019-03-21T08:10:29.593Z,72.79
2019-03-21T08:11:29.597Z,74.74
2019-03-21T08:12:29.606Z,73.50
2019-03-21T08:13:29.648Z,74.45
2019-03-21T08:14:29.621Z,74.07
2019-03-21T08:15:29.620Z,73.21
2019-03-21T08:16:29.630Z,73.50
2019-03-21T08:17:29.631Z,72.77
2019-03-21T08:18:29.681Z,71.04
2019-03-21T08:19:29.680Z,70.60
2019-03-21T08:20:29.669Z,69.93
2019-03-21T08:21:29.673Z,68.78
2019-03-21T08:22:29.675Z,67.25
2019-03-21T08:23:29.721Z,68.87
2019-03-21T08:24:29.683Z,69.17
2019-03-21T08:25:29.700Z,69.68
2019-03-21T08:26:29.704Z,69.39
2019-03-21T08:27:29.713Z,68.72
2019-03-21T08:28:29.748Z,67.91
2019-03-21T08:29:29.801Z,67.34
2019-03-21T08:30:29.822Z,67.63
2019-03-21T08:31:29.757Z,67.82
2019-03-21T08:32:30.617Z,67.91
2019-03-21T08:33:29.801Z,68.30
2019-03-21T08:34:29.780Z,68.68
2019-03-21T08:35:29.779Z,69.93
2019-03-21T08:36:29.798Z,69.64
2019-03-21T08:37:29.803Z,69.45
2019-03-21T08:38:29.848Z,70.12
2019-03-21T08:39:29.842Z,70.44
2019-03-21T08:40:29.821Z,68.33
2019-03-21T08:41:29.846Z,68.43
2019-03-21T08:42:29.846Z,69.33
2019-03-21T08:43:29.900Z,69.23
2019-03-21T08:44:29.900Z,69.07
2019-03-21T08:45:29.872Z,66.58
2019-03-21T08:46:29.884Z,66.86
2019-03-21T08:47:29.900Z,67.06
2019-03-21T08:48:29.898Z,64.72
2019-03-21T08:49:29.942Z,64.92
2019-03-21T08:50:29.956Z,65.20
2019-03-21T08:51:29.932Z,64.63
2019-03-21T08:52:29.947Z,65.20
2019-03-21T08:53:29.958Z,64.63
2019-03-21T08:54:29.990Z,64.53
2019-03-21T08:55:29.975Z,64.95
2019-03-21T08:56:30.030Z,65.81
2019-03-21T08:57:29.993Z,64.79
2019-03-21T08:58:29.996Z,64.09
2019-03-21T08:59:30.049Z,63.70
2019-03-21T09:00:34.517Z,63.92
2019-03-21T09:01:30.035Z,63.22
2019-03-21T09:02:30.076Z,63.99
2019-03-21T09:03:30.105Z,64.50
2019-03-21T09:04:30.102Z,65.56
2019-03-21T09:05:30.066Z,63.83
2019-03-21T09:06:30.080Z,63.28
2019-03-21T09:07:30.097Z,62.99
2019-03-21T09:08:30.113Z,64.25
2019-03-21T09:09:30.161Z,63.38
2019-03-21T09:10:30.126Z,63.48
2019-03-21T09:11:31.264Z,62.93
2019-03-21T09:12:30.154Z,63.09
2019-03-21T09:13:30.166Z,63.38
2019-03-21T09:14:30.207Z,62.99
2019-03-21T09:15:30.233Z,64.53
2019-03-21T09:16:30.193Z,64.43
2019-03-21T09:17:30.879Z,63.57
2019-03-21T09:18:30.224Z,63.38
2019-03-21T09:19:31.003Z,62.74
2019-03-21T09:20:30.492Z,63.02
2019-03-21T09:21:30.262Z,64.18
2019-03-21T09:22:30.268Z,63.99
2019-03-21T09:23:30.280Z,63.41
2019-03-21T09:24:30.321Z,62.96
2019-03-21T09:25:30.317Z,62.10
2019-03-21T09:26:30.321Z,61.33
2019-03-21T09:27:30.329Z,61.91
2019-03-21T09:28:30.381Z,61.46
2019-03-21T09:29:30.389Z,62.51
2019-03-21T09:30:31.585Z,61.97
2019-03-21T09:31:30.387Z,60.07
2019-03-21T09:32:31.522Z,59.27
2019-03-21T09:33:31.670Z,59.56
2019-03-21T09:34:30.464Z,59.37
2019-03-21T09:35:31.544Z,60.30
2019-03-21T09:36:30.453Z,60.97
2019-03-21T09:37:31.242Z,60.21
2019-03-21T09:38:30.478Z,60.97
2019-03-21T09:39:30.521Z,59.92
2019-03-21T09:40:30.542Z,60.17
2019-03-21T09:41:30.527Z,60.65
2019-03-21T09:42:30.528Z,59.69
2019-03-21T09:43:30.550Z,58.85
2019-03-21T09:44:30.594Z,58.92
2019-03-21T09:45:30.596Z,58.63
2019-03-21T09:46:30.886Z,59.72
2019-03-21T09:47:31.583Z,59.33
2019-03-21T09:48:30.625Z,58.95
2019-03-21T09:49:30.634Z,58.88
2019-03-21T09:50:30.682Z,58.01
2019-03-21T09:51:31.266Z,57.90
2019-03-21T09:52:31.594Z,60.30
2019-03-21T09:53:30.701Z,62.93
2019-03-21T09:54:31.517Z,62.77
2019-03-21T09:55:30.758Z,60.97
2019-03-21T09:56:30.748Z,61.90
2019-03-21T09:57:30.765Z,62.12
2019-03-21T09:58:30.812Z,60.20
2019-03-21T09:59:30.790Z,59.55
2019-03-21T10:00:30.846Z,57.79
2019-03-21T10:01:30.831Z,58.08
2019-03-21T10:02:30.843Z,58.65
2019-03-21T10:03:30.868Z,58.72
2019-03-21T10:04:30.876Z,58.17
2019-03-21T10:05:30.934Z,57.21
2019-03-21T10:06:30.912Z,59.14
2019-03-21T10:07:30.929Z,58.56
2019-03-21T10:08:30.947Z,58.53
2019-03-21T10:09:30.962Z,58.15
2019-03-21T10:10:31.012Z,58.63
2019-03-21T10:11:31.036Z,58.37
2019-03-21T10:12:31.007Z,57.79
2019-03-21T10:13:31.033Z,57.57
2019-03-21T10:14:31.046Z,58.34
2019-03-21T10:15:31.119Z,59.11
2019-03-21T10:16:31.078Z,58.02
2019-03-21T10:17:31.129Z,58.92
2019-03-21T10:18:31.117Z,57.89
2019-03-21T10:19:31.127Z,59.14
2019-03-21T10:20:31.142Z,59.55
2019-03-21T10:21:42.529Z,57.60
2019-03-21T10:22:31.209Z,58.17
2019-03-21T10:23:31.384Z,61.48
2019-03-21T10:24:31.223Z,60.32
2019-03-21T10:25:31.260Z,58.20
2019-03-21T10:26:31.238Z,57.72
2019-03-21T10:27:31.294Z,56.98
2019-03-21T10:28:31.314Z,55.94
2019-03-21T10:29:31.296Z,53.92
2019-03-21T10:30:31.310Z,53.75
2019-03-21T10:31:31.327Z,54.62
2019-03-21T10:32:31.388Z,55.52
2019-03-21T10:33:31.367Z,54.65
2019-03-21T10:34:31.831Z,53.49
2019-03-21T10:35:32.647Z,53.88
2019-03-21T10:36:31.414Z,55.46
2019-03-21T10:37:32.110Z,58.45
2019-03-21T10:38:31.500Z,56.04
2019-03-21T10:39:31.467Z,55.46
2019-03-21T10:40:31.531Z,55.40
2019-03-21T10:41:31.511Z,55.76
2019-03-21T10:42:31.552Z,55.73
2019-03-21T10:43:31.535Z,54.47
2019-03-21T10:44:31.616Z,54.86
2019-03-21T10:45:31.575Z,59.91
2019-03-21T10:46:31.639Z,60.32
2019-03-21T10:47:31.623Z,59.36
2019-03-21T10:48:31.649Z,58.12
2019-03-21T10:49:31.664Z,59.32
2019-03-21T10:50:31.681Z,63.51
2019-03-21T10:51:31.726Z,63.79
2019-03-21T10:52:31.742Z,64.43
2019-03-21T10:53:31.737Z,65.88
2019-03-21T10:54:31.748Z,66.35
2019-03-21T10:55:31.763Z,66.51
2019-03-21T10:56:31.837Z,66.38
2019-03-21T10:57:31.803Z,68.75
2019-03-21T10:58:31.852Z,66.49
2019-03-21T10:59:31.839Z,64.79
2019-03-21T11:00:31.849Z,63.70
2019-03-21T11:01:31.906Z,63.96
2019-03-21T11:02:31.896Z,65.97
2019-03-21T11:03:31.907Z,68.82
2019-03-21T11:04:31.963Z,67.00
2019-03-21T11:05:31.943Z,62.83
2019-03-21T11:06:31.992Z,59.97
2019-03-21T11:07:31.980Z,60.20
2019-03-21T11:08:32.004Z,58.42
2019-03-21T11:09:32.055Z,57.59
2019-03-21T11:10:33.001Z,55.56
2019-03-21T11:11:32.079Z,54.60
2019-03-21T11:12:32.069Z,54.66
2019-03-21T11:13:32.165Z,55.70
2019-03-21T11:14:33.051Z,56.05
2019-03-21T11:15:32.121Z,55.67
2019-03-21T11:16:33.119Z,58.01
2019-03-21T11:17:32.151Z,55.92
2019-03-21T11:18:36.328Z,54.60
2019-03-21T11:19:32.210Z,54.38
2019-03-21T11:20:32.245Z,55.15
2019-03-21T11:21:32.727Z,54.98
2019-03-21T11:22:32.246Z,56.72
2019-03-21T11:23:32.328Z,56.33
2019-03-21T11:24:32.276Z,55.31
2019-03-21T11:25:32.290Z,56.38
2019-03-21T11:26:32.357Z,63.92
2019-03-21T11:27:32.332Z,59.30
2019-03-21T11:28:32.383Z,58.78
2019-03-21T11:29:32.370Z,58.26
2019-03-21T11:30:32.382Z,57.78
2019-03-21T11:31:32.447Z,57.60
2019-03-21T11:32:32.472Z,57.39
2019-03-21T11:33:32.444Z,61.04
2019-03-21T11:34:32.458Z,62.90
2019-03-21T11:35:32.493Z,63.28
2019-03-21T11:36:38.218Z,62.96
2019-03-21T11:37:32.548Z,64.50
2019-03-21T11:38:32.585Z,65.49
2019-03-21T11:39:32.562Z,63.28
2019-03-21T11:40:32.575Z,62.19
2019-03-21T11:41:32.598Z,59.17
2019-03-21T11:42:32.658Z,55.73
2019-03-21T11:43:33.297Z,55.73
2019-03-21T11:44:32.656Z,53.63
2019-03-21T11:45:32.699Z,54.33
2019-03-21T11:46:32.700Z,54.46
2019-03-21T11:47:41.290Z,52.53
2019-03-21T11:48:32.738Z,52.94
2019-03-21T11:49:32.755Z,51.85
2019-03-21T11:50:32.771Z,53.49
2019-03-21T11:51:32.877Z,52.62
2019-03-21T11:52:32.839Z,54.07
2019-03-21T11:53:32.830Z,53.30
2019-03-21T11:54:32.861Z,51.87
2019-03-21T11:55:32.866Z,53.25
2019-03-21T11:56:32.902Z,51.59
2019-03-21T11:57:32.932Z,50.50
2019-03-21T11:58:32.963Z,51.34
2019-03-21T11:59:46.165Z,54.38
2019-03-21T12:00:42.709Z,54.99
2019-03-21T12:01:32.986Z,59.74
2019-03-21T12:02:33.053Z,63.92
2019-03-21T12:03:33.028Z,65.81
2019-03-21T12:04:33.031Z,66.67
2019-03-21T12:05:33.059Z,67.54
2019-03-21T12:06:33.076Z,67.57
2019-03-21T12:07:33.135Z,66.06
2019-03-21T12:08:33.109Z,65.05
2019-03-21T12:09:33.132Z,63.28
2019-03-21T12:10:33.143Z,64.22
2019-03-21T12:11:33.169Z,61.87
2019-03-21T12:12:33.212Z,58.98
2019-03-21T12:13:33.201Z,58.98
2019-03-21T12:14:33.220Z,58.22
2019-03-21T12:15:33.230Z,59.31
2019-03-21T12:16:33.253Z,59.89
2019-03-21T12:17:33.308Z,60.08
2019-03-21T12:18:33.283Z,59.72
2019-03-21T12:19:33.305Z,58.31
2019-03-21T12:20:33.325Z,59.08
2019-03-21T12:21:33.342Z,58.22
2019-03-21T12:22:33.403Z,58.27
2019-03-21T12:23:33.377Z,57.62
2019-03-21T12:24:33.389Z,55.82
2019-03-21T12:25:33.410Z,55.18
2019-03-21T12:26:33.432Z,57.52
2019-03-21T12:27:33.482Z,55.49
2019-03-21T12:28:33.465Z,55.90
2019-03-21T12:29:33.485Z,54.19
2019-03-21T12:30:33.503Z,54.58
2019-03-21T12:31:33.517Z,53.97
2019-03-21T12:32:33.568Z,55.04
2019-03-21T12:33:33.586Z,56.74
2019-03-21T12:34:33.581Z,54.40
2019-03-21T12:35:33.594Z,57.14
2019-03-21T12:36:33.675Z,57.23
2019-03-21T12:37:33.635Z,56.74
2019-03-21T12:38:33.686Z,53.27
2019-03-21T12:39:33.671Z,54.36
2019-03-21T12:40:33.690Z,53.71
2019-03-21T12:41:33.706Z,51.68
2019-03-21T12:42:33.740Z,52.35
2019-03-21T12:43:33.786Z,57.72
2019-03-21T12:44:33.759Z,57.80
2019-03-21T12:45:33.783Z,62.74
2019-03-21T12:46:33.802Z,62.29
2019-03-21T12:47:33.820Z,62.74
2019-03-21T12:48:33.891Z,65.66
2019-03-21T12:49:33.860Z,65.78
2019-03-21T12:50:34.728Z,64.05
2019-03-21T12:51:33.900Z,64.09
2019-03-21T12:52:41.469Z,65.75